Time;durP1;ratioP1;P1;durP2;ratioP2;P2;SDS_P1;SDS_P2;PMS_P1;PMS_P2;Temp;Humidity;BMP_temperature;BMP_pressure;BME280_temperature;BME280_humidity;BME280_pressure;Samples;Min_cycle;Max_cycle;Signal;HPM_P1;HPM_P2
2022/02/27 00:02:00;;;;;;;11.33;5.80;;;;;;;0.56;65.92;101492.92;1650876;87;21469;-74
2022/02/27 00:04:27;;;;;;;12.00;5.47;;;;;;;0.55;66.05;101493.37;1684747;82;21013;-74
2022/02/27 00:06:53;;;;;;;10.03;5.15;;;;;;;0.55;66.03;101495.97;1667521;84;20996;-75
2022/02/27 00:09:20;;;;;;;9.75;5.10;;;;;;;0.51;65.99;101499.53;1708685;82;21105;-73
2022/02/27 00:11:51;;;;;;;11.05;5.92;;;;;;;0.48;66.17;101493.52;1696101;84;21857;-73
2022/02/27 00:14:17;;;;;;;10.68;5.20;;;;;;;0.45;66.21;101488.39;1694631;83;20989;-74
2022/02/27 00:16:44;;;;;;;11.63;6.00;;;;;;;0.45;66.41;101500.94;1712888;83;21453;-75
2022/02/27 00:19:11;;;;;;;12.40;5.70;;;;;;;0.43;66.46;101499.27;1713008;83;21005;-75
2022/02/27 00:21:37;;;;;;;10.40;5.67;;;;;;;0.41;66.53;101494.55;1710085;82;21017;-76
2022/02/27 00:24:04;;;;;;;15.58;5.92;;;;;;;0.41;66.64;101494.10;1695885;83;22184;-74
2022/02/27 00:26:31;;;;;;;10.53;5.50;;;;;;;0.41;66.82;101485.00;1677093;84;21402;-73
2022/02/27 00:28:57;;;;;;;9.00;5.10;;;;;;;0.42;66.87;101494.52;1712658;83;21053;-72
2022/02/27 00:31:26;;;;;;;11.28;5.45;;;;;;;0.41;66.83;101505.80;1690237;83;21461;-73
2022/02/27 00:33:52;;;;;;;11.78;6.05;;;;;;;0.34;66.78;101501.59;1716989;82;20962;-74
2022/02/27 00:36:19;;;;;;;12.70;5.97;;;;;;;0.30;67.01;101499.95;1675109;84;22620;-73
2022/02/27 00:38:46;;;;;;;12.80;5.78;;;;;;;0.31;67.06;101508.16;1664035;85;20986;-73
2022/02/27 00:41:12;;;;;;;10.65;5.92;;;;;;;0.33;67.22;101511.58;1675769;84;21486;-73
2022/02/27 00:43:39;;;;;;;9.33;5.58;;;;;;;0.32;67.30;101511.17;1695417;82;21021;-74
2022/02/27 00:46:06;;;;;;;12.58;6.17;;;;;;;0.34;67.45;101509.39;1651517;85;21028;-73
2022/02/27 00:48:33;;;;;;;11.30;5.47;;;;;;;0.39;67.53;101510.63;1650431;87;21857;-74
2022/02/27 00:51:03;;;;;;;10.68;5.47;;;;;;;0.43;67.59;101510.52;1706392;82;21076;-74
2022/02/27 00:53:31;;;;;;;12.07;5.20;;;;;;;0.46;67.62;101505.69;1706209;82;20958;-74
2022/02/27 00:55:58;;;;;;;12.95;6.00;;;;;;;0.49;67.67;101514.30;1706512;82;21423;-74
2022/02/27 00:58:24;;;;;;;10.58;5.80;;;;;;;0.50;67.71;101510.81;1707829;83;21052;-73
2022/02/27 01:00:52;;;;;;;12.70;6.05;;;;;;;0.52;67.73;101505.58;1695652;83;22502;-74
2022/02/27 01:03:19;;;;;;;11.18;5.97;;;;;;;0.54;67.73;101505.10;1694881;82;20970;-72
2022/02/27 01:05:46;;;;;;;12.45;5.85;;;;;;;0.55;67.72;101507.66;1637510;85;21015;-74
2022/02/27 01:08:13;;;;;;;12.40;5.80;;;;;;;0.55;67.78;101501.17;1705256;82;21368;-72
2022/02/27 01:10:40;;;;;;;12.20;5.37;;;;;;;0.55;67.76;101507.66;1633892;86;21367;-72
2022/02/27 01:13:08;;;;;;;13.55;5.78;;;;;;;0.49;67.64;101514.30;1685198;83;22253;-72
2022/02/27 01:15:34;;;;;;;11.68;5.28;;;;;;;0.38;67.59;101516.23;1683834;82;21061;-73
2022/02/27 01:18:01;;;;;;;10.30;5.53;;;;;;;0.32;67.75;101524.16;1662276;85;21005;-72
2022/02/27 01:20:28;;;;;;;9.08;5.22;;;;;;;0.27;67.83;101523.38;1690417;83;20969;-72
2022/02/27 01:22:56;;;;;;;10.45;5.37;;;;;;;0.21;67.98;101521.77;1651007;86;21020;-72
2022/02/27 01:25:22;;;;;;;9.98;5.33;;;;;;;0.20;68.06;101523.09;1703279;82;21853;-72
2022/02/27 01:27:49;;;;;;;10.98;5.55;;;;;;;0.18;68.12;101521.80;1692477;83;20958;-72
2022/02/27 01:30:15;;;;;;;10.32;5.50;;;;;;;0.20;68.32;101520.05;1663603;85;21005;-73
2022/02/27 01:32:42;;;;;;;12.53;5.72;;;;;;;0.21;68.34;101519.61;1676569;84;21041;-74
2022/02/27 01:35:09;;;;;;;10.68;4.72;;;;;;;0.19;68.27;101514.45;1668326;84;20968;-73
2022/02/27 01:37:36;;;;;;;13.55;5.25;;;;;;;0.19;68.34;101514.86;1650520;85;21837;-73
2022/02/27 01:40:03;;;;;;;10.48;5.47;;;;;;;0.18;68.44;101514.00;1689484;84;20993;-73
2022/02/27 01:42:31;;;;;;;11.18;5.62;;;;;;;0.12;68.41;101512.84;1658686;84;21371;-72
2022/02/27 01:45:00;;;;;;;11.80;5.37;;;;;;;0.06;68.42;101513.38;1702587;82;21515;-73
2022/02/27 01:47:27;;;;;;;11.73;5.60;;;;;;;0.01;68.42;101523.02;1588758;86;21522;-73
2022/02/27 01:49:53;;;;;;;11.33;5.58;;;;;;;-0.03;68.72;101518.30;1689076;83;21445;-72
2022/02/27 01:52:20;;;;;;;14.40;5.92;;;;;;;-0.01;68.89;101518.67;1685923;82;21773;-72
2022/02/27 01:54:46;;;;;;;10.53;5.62;;;;;;;0.02;69.03;101524.72;1685302;82;21018;-73
2022/02/27 01:57:14;;;;;;;9.93;5.10;;;;;;;0.06;69.21;101522.47;1673994;85;21106;-73
2022/02/27 01:59:42;;;;;;;10.18;5.70;;;;;;;0.10;69.27;101520.25;1658396;83;21569;-74
2022/02/27 02:02:09;;;;;;;10.82;5.35;;;;;;;0.13;69.29;101521.05;1667810;84;22474;-72
2022/02/27 02:04:35;;;;;;;12.33;5.35;;;;;;;0.17;69.44;101517.49;1639280;85;21507;-73
2022/02/27 02:07:03;;;;;;;10.30;5.30;;;;;;;0.20;69.41;101524.40;1657889;85;21352;-73
2022/02/27 02:09:30;;;;;;;9.90;5.25;;;;;;;0.21;69.41;101519.17;1680690;83;20986;-73
2022/02/27 02:11:57;;;;;;;10.53;5.00;;;;;;;0.21;69.49;101517.02;1670013;84;21480;-73
2022/02/27 02:14:23;;;;;;;11.93;5.45;;;;;;;0.22;69.58;101517.42;1658761;85;22548;-74
2022/02/27 02:16:53;;;;;;;13.43;5.95;;;;;;;0.21;69.64;101515.27;1678472;84;20956;-74
2022/02/27 02:19:22;;;;;;;13.60;5.60;;;;;;;0.22;69.71;101522.17;1676343;85;20957;-73
2022/02/27 02:21:53;;;;;;;10.08;5.08;;;;;;;0.23;69.72;101516.53;1670913;85;21012;-73
2022/02/27 02:24:20;;;;;;;10.63;5.78;;;;;;;0.26;69.80;101525.56;1678574;85;20960;-74
2022/02/27 02:26:47;;;;;;;10.15;5.30;;;;;;;0.27;69.97;101515.14;1678245;85;21829;-73
2022/02/27 02:29:17;;;;;;;10.53;5.03;;;;;;;0.31;70.07;101519.85;1659111;85;21047;-74
2022/02/27 02:31:46;;;;;;;10.63;5.25;;;;;;;0.35;70.22;101523.23;1666269;84;20937;-73
2022/02/27 02:34:16;;;;;;;10.53;5.35;;;;;;;0.37;70.11;101522.31;1696906;82;20974;-73
2022/02/27 02:36:44;;;;;;;10.60;5.37;;;;;;;0.39;70.04;101516.67;1710835;83;20962;-73
2022/02/27 02:39:13;;;;;;;13.32;5.80;;;;;;;0.41;70.06;101512.73;1697234;83;21865;-72
2022/02/27 02:41:41;;;;;;;10.70;5.50;;;;;;;0.44;69.97;101514.82;1698157;82;20953;-73
2022/02/27 02:44:10;;;;;;;11.60;5.62;;;;;;;0.42;69.88;101514.45;1665815;84;21417;-72
2022/02/27 02:46:36;;;;;;;9.88;5.28;;;;;;;0.38;69.80;101513.62;1705755;83;21053;-73
2022/02/27 02:49:04;;;;;;;11.60;5.55;;;;;;;0.34;69.71;101517.19;1702879;82;20961;-73
2022/02/27 02:51:39;;;;;;;10.98;5.28;;;;;;;0.25;69.63;101519.52;1711305;82;22526;-73
2022/02/27 02:54:10;;;;;;;13.60;5.72;;;;;;;0.16;69.53;101505.39;1686883;82;21052;-73
2022/02/27 02:56:36;;;;;;;11.57;5.60;;;;;;;0.08;69.46;101511.16;1703346;83;21457;-72
2022/02/27 02:59:04;;;;;;;11.28;5.58;;;;;;;-0.02;69.41;101508.31;1676182;85;21375;-72
2022/02/27 03:01:32;;;;;;;12.25;5.15;;;;;;;-0.13;69.26;101512.40;1711667;83;20958;-72
2022/02/27 03:04:00;;;;;;;10.32;5.55;;;;;;;-0.23;69.24;101519.08;1694061;82;21791;-72
2022/02/27 03:06:27;;;;;;;11.65;5.45;;;;;;;-0.29;69.27;101517.42;1695116;82;21492;-71
2022/02/27 03:08:53;;;;;;;9.98;5.40;;;;;;;-0.34;69.36;101524.45;1695142;82;20997;-72
2022/02/27 03:11:20;;;;;;;10.68;5.55;;;;;;;-0.42;69.38;101528.45;1669030;84;20953;-72
2022/02/27 03:13:46;;;;;;;10.03;5.47;;;;;;;-0.48;69.46;101525.98;1657298;85;21032;-72
2022/02/27 03:16:13;;;;;;;9.23;4.53;;;;;;;-0.51;69.62;101527.73;1684406;82;21878;-71
2022/02/27 03:18:40;;;;;;;13.93;5.62;;;;;;;-0.54;69.79;101534.28;1649782;85;20974;-72
2022/02/27 03:21:06;;;;;;;10.90;4.97;;;;;;;-0.55;70.07;101545.55;1683463;82;20985;-72
2022/02/27 03:23:33;;;;;;;9.83;5.42;;;;;;;-0.58;70.25;101547.72;1669499;85;20969;-73
2022/02/27 03:26:00;;;;;;;10.82;4.95;;;;;;;-0.65;70.33;101553.47;1708545;82;20962;-72
2022/02/27 03:28:27;;;;;;;15.93;6.08;;;;;;;-0.65;70.65;101546.13;1634246;85;21852;-73
2022/02/27 03:30:54;;;;;;;9.33;5.53;;;;;;;-0.64;70.99;101553.88;1705172;82;20950;-71
2022/02/27 03:33:20;;;;;;;11.65;5.53;;;;;;;-0.63;71.27;101552.14;1677526;85;20997;-71
2022/02/27 03:35:47;;;;;;;14.07;5.67;;;;;;;-0.61;71.36;101555.56;1711194;82;21039;-71
2022/02/27 03:38:14;;;;;;;10.45;5.60;;;;;;;-0.59;71.45;101548.61;1709608;82;20986;-71
2022/02/27 03:40:40;;;;;;;11.90;5.42;;;;;;;-0.55;71.51;101558.52;1674860;85;21844;-71
2022/02/27 03:43:06;;;;;;;10.88;5.47;;;;;;;-0.54;71.55;101558.50;1674638;84;21427;-73
2022/02/27 03:45:34;;;;;;;10.88;5.40;;;;;;;-0.55;71.59;101556.78;1676194;84;21061;-73
2022/02/27 03:48:01;;;;;;;10.75;5.65;;;;;;;-0.54;71.69;101555.05;1657016;84;21638;-73
2022/02/27 03:50:27;;;;;;;12.85;5.83;;;;;;;-0.52;71.75;101557.17;1681681;82;21491;-72
2022/02/27 03:52:54;;;;;;;12.23;5.70;;;;;;;-0.54;71.73;101553.30;1686477;83;21853;-72
2022/02/27 03:55:20;;;;;;;11.73;5.72;;;;;;;-0.52;71.74;101560.62;1662257;84;20965;-73
2022/02/27 03:57:47;;;;;;;9.40;5.20;;;;;;;-0.51;71.73;101552.39;1688822;82;21040;-74
2022/02/27 04:00:16;;;;;;;13.28;5.85;;;;;;;-0.52;71.75;101556.73;1677802;85;21421;-73
2022/02/27 04:02:46;;;;;;;10.70;5.20;;;;;;;-0.52;71.76;101551.98;1710089;82;21342;-73
2022/02/27 04:05:15;;;;;;;11.40;5.40;;;;;;;-0.52;71.79;101559.77;1700504;82;21926;-71
2022/02/27 04:07:42;;;;;;;10.32;5.30;;;;;;;-0.54;71.80;101554.61;1684848;82;20958;-72
2022/02/27 04:10:11;;;;;;;11.10;5.28;;;;;;;-0.54;71.88;101558.50;1683369;85;20993;-72
2022/02/27 04:12:37;;;;;;;11.33;5.80;;;;;;;-0.55;71.93;101559.82;1702199;83;21001;-74
2022/02/27 04:15:06;;;;;;;11.18;5.03;;;;;;;-0.56;72.00;101559.41;1709310;82;21029;-74
2022/02/27 04:17:32;;;;;;;11.08;6.00;;;;;;;-0.57;71.92;101565.04;1688211;82;21875;-73
2022/02/27 04:19:59;;;;;;;12.35;6.05;;;;;;;-0.60;71.89;101563.32;1710795;82;21037;-74
2022/02/27 04:22:27;;;;;;;12.82;5.53;;;;;;;-0.64;71.83;101560.37;1670050;84;21124;-74
2022/02/27 04:24:55;;;;;;;9.63;5.75;;;;;;;-0.67;71.82;101564.75;1706310;82;21025;-74
2022/02/27 04:27:21;;;;;;;9.93;5.00;;;;;;;-0.72;71.73;101567.39;1648460;86;21008;-74
2022/02/27 04:29:48;;;;;;;11.25;5.37;;;;;;;-0.76;71.69;101570.92;1686862;82;21813;-74
2022/02/27 04:32:15;;;;;;;10.38;5.53;;;;;;;-0.75;71.82;101576.53;1722464;82;21033;-73
2022/02/27 04:34:42;;;;;;;10.32;5.60;;;;;;;-0.76;71.86;101570.06;1742599;81;20955;-74
2022/02/27 04:37:09;;;;;;;10.48;5.12;;;;;;;-0.77;71.82;101580.89;1701269;81;21258;-74
2022/02/27 04:39:35;;;;;;;11.73;5.83;;;;;;;-0.73;71.89;101579.95;1665261;85;21449;-73
2022/02/27 04:42:02;;;;;;;9.93;5.33;;;;;;;-0.73;71.87;101584.28;1657984;83;22375;-73
2022/02/27 04:44:29;;;;;;;10.40;5.58;;;;;;;-0.76;71.81;101580.44;1706546;82;21088;-72
2022/02/27 04:46:55;;;;;;;8.85;4.62;;;;;;;-0.77;71.79;101583.48;1741550;82;21025;-72
2022/02/27 04:49:22;;;;;;;11.35;4.75;;;;;;;-0.80;71.76;101580.05;1717507;82;20974;-72
2022/02/27 04:51:50;;;;;;;11.45;5.30;;;;;;;-0.80;71.88;101582.64;1671906;84;20953;-72
2022/02/27 04:54:17;;;;;;;11.12;5.55;;;;;;;-0.78;71.86;101583.47;1658234;85;21855;-73
2022/02/27 04:56:43;;;;;;;9.88;4.80;;;;;;;-0.77;71.83;101588.67;1652241;84;21092;-72
2022/02/27 04:59:10;;;;;;;10.08;4.92;;;;;;;-0.75;71.84;101589.50;1666562;84;21014;-73
2022/02/27 05:01:39;;;;;;;10.13;4.95;;;;;;;-0.71;72.00;101589.86;1632780;85;21058;-73
2022/02/27 05:04:06;;;;;;;11.50;5.87;;;;;;;-0.65;72.06;101587.20;1660413;86;21515;-72
2022/02/27 05:06:33;;;;;;;18.67;11.50;;;;;;;-0.57;72.10;101592.73;1667285;85;21849;-73
2022/02/27 05:09:01;;;;;;;143.00;60.45;;;;;;;-0.51;72.17;101596.07;1658958;85;20973;-73
2022/02/27 05:11:27;;;;;;;47.85;23.25;;;;;;;-0.43;72.25;101595.97;1656826;86;21026;-73
2022/02/27 05:13:54;;;;;;;47.43;22.55;;;;;;;-0.38;72.26;101596.33;1637139;87;20986;-73
2022/02/27 05:16:22;;;;;;;36.68;19.42;;;;;;;-0.31;72.32;101599.23;1644160;85;20954;-74
2022/02/27 05:18:49;;;;;;;40.50;20.30;;;;;;;-0.24;72.29;101602.60;1660201;85;21802;-74
2022/02/27 05:21:15;;;;;;;20.95;11.53;;;;;;;-0.19;72.23;101594.31;1648004;86;21088;-72
2022/02/27 05:23:44;;;;;;;25.62;12.55;;;;;;;-0.11;72.14;101597.62;1636751;87;20990;-72
2022/02/27 05:26:11;;;;;;;16.82;9.38;;;;;;;-0.03;72.05;101600.11;1697819;84;20962;-72
2022/02/27 05:28:37;;;;;;;123.15;61.10;;;;;;;0.03;72.00;101604.36;1640853;85;20998;-74
2022/02/27 05:31:05;;;;;;;75.32;35.20;;;;;;;0.10;71.91;101600.78;1642982;86;21046;-72
2022/02/27 05:33:32;;;;;;;26.97;12.03;;;;;;;0.16;71.71;101605.86;1660509;85;21014;-73
2022/02/27 05:35:59;;;;;;;207.35;102.32;;;;;;;0.22;71.54;101614.86;1718896;81;21065;-72
2022/02/27 05:38:25;;;;;;;80.10;39.48;;;;;;;0.25;71.41;101604.41;1713408;83;21017;-72
2022/02/27 05:40:52;;;;;;;33.58;17.98;;;;;;;0.33;71.24;101612.93;1709387;83;21595;-72
2022/02/27 05:43:19;;;;;;;25.12;15.15;;;;;;;0.39;71.00;101608.08;1716402;82;21741;-74
2022/02/27 05:45:45;;;;;;;11.68;6.45;;;;;;;0.44;70.83;101605.80;1711277;83;21030;-75
2022/02/27 05:48:12;;;;;;;18.52;10.03;;;;;;;0.51;70.32;101613.05;1689312;84;20949;-74
2022/02/27 05:50:38;;;;;;;13.25;6.65;;;;;;;0.59;70.07;101615.52;1705561;83;21385;-74
2022/02/27 05:53:05;;;;;;;12.35;5.65;;;;;;;0.66;69.88;101612.75;1677432;84;21099;-74
2022/02/27 05:55:32;;;;;;;51.20;24.35;;;;;;;0.71;69.47;101613.98;1709136;82;21829;-75
2022/02/27 05:58:00;;;;;;;19.57;9.73;;;;;;;0.77;68.90;101617.33;1714136;81;20950;-73
2022/02/27 06:00:26;;;;;;;62.25;32.20;;;;;;;0.85;68.53;101617.16;1658062;85;21033;-74
2022/02/27 06:02:53;;;;;;;32.00;15.43;;;;;;;0.94;68.36;101618.28;1668019;83;21451;-73
2022/02/27 06:05:20;;;;;;;23.67;10.85;;;;;;;1.01;68.07;101624.23;1698104;82;20994;-73
2022/02/27 06:07:47;;;;;;;19.70;9.68;;;;;;;1.07;67.68;101624.98;1712266;82;22181;-72
2022/02/27 06:10:14;;;;;;;22.32;9.23;;;;;;;1.15;67.34;101618.28;1704102;82;21051;-73
2022/02/27 06:12:48;;;;;;;21.55;9.90;;;;;;;1.22;67.16;101626.39;1685327;83;21049;-73
2022/02/27 06:15:17;;;;;;;18.12;8.10;;;;;;;1.30;66.79;101626.23;1666643;85;21037;-73
2022/02/27 06:17:43;;;;;;;16.95;7.15;;;;;;;1.36;66.45;101629.58;1712092;82;21100;-74
2022/02/27 06:20:11;;;;;;;16.93;7.00;;;;;;;1.43;66.21;101628.98;1667790;84;21848;-73
2022/02/27 06:22:46;;;;;;;16.20;5.97;;;;;;;1.50;65.85;101631.87;1666678;85;21537;-73
2022/02/27 06:25:18;;;;;;;12.88;6.53;;;;;;;1.56;65.53;101635.65;1675838;83;21031;-77
2022/02/27 06:27:44;;;;;;;113.17;54.05;;;;;;;1.62;65.29;101638.09;1712470;80;21085;-76
2022/02/27 06:30:17;;;;;;;59.25;27.22;;;;;;;1.68;65.03;101635.37;1710612;83;21049;-75
2022/02/27 06:32:49;;;;;;;134.78;60.67;;;;;;;1.73;64.79;101642.62;1703035;83;21843;-74
2022/02/27 06:35:19;;;;;;;76.53;37.98;;;;;;;1.79;64.64;101639.03;1693699;83;21431;-75
2022/02/27 06:37:45;;;;;;;30.45;15.80;;;;;;;1.83;64.22;101642.41;1689505;82;20957;-75
2022/02/27 06:40:13;;;;;;;11.68;6.12;;;;;;;1.88;63.89;101645.33;1712390;81;21464;-74
2022/02/27 06:42:39;;;;;;;6.78;3.90;;;;;;;1.93;63.74;101642.61;1702071;83;21131;-73
2022/02/27 06:45:07;;;;;;;5.70;3.33;;;;;;;1.97;63.57;101650.33;1664290;85;22211;-75
2022/02/27 06:47:34;;;;;;;8.03;3.45;;;;;;;2.03;63.49;101653.67;1698286;82;21524;-74
2022/02/27 06:50:01;;;;;;;9.88;3.58;;;;;;;2.05;63.20;101657.97;1692214;83;21041;-74
2022/02/27 06:52:27;;;;;;;8.80;4.15;;;;;;;2.07;63.08;101661.84;1707754;82;21037;-73
2022/02/27 06:54:55;;;;;;;6.83;4.08;;;;;;;2.10;62.85;101658.70;1692245;82;21089;-75
2022/02/27 06:57:22;;;;;;;6.80;3.87;;;;;;;2.12;62.77;101662.12;1699244;83;23026;-76
2022/02/27 06:59:49;;;;;;;39.75;22.00;;;;;;;2.13;62.62;101653.89;1660038;85;21032;-75
2022/02/27 07:02:15;;;;;;;14.47;7.10;;;;;;;2.16;62.35;101654.66;1709082;83;21135;-73
2022/02/27 07:04:43;;;;;;;11.88;4.87;;;;;;;2.16;62.16;101657.27;1711263;82;21096;-74
2022/02/27 07:07:09;;;;;;;13.40;6.85;;;;;;;2.19;62.25;101656.33;1688190;82;21567;-73
2022/02/27 07:09:37;;;;;;;19.82;11.40;;;;;;;2.22;62.09;101661.45;1681245;83;21836;-75
2022/02/27 07:12:04;;;;;;;15.08;8.38;;;;;;;2.26;62.02;101657.45;1670327;85;21024;-73
2022/02/27 07:14:31;;;;;;;43.92;23.57;;;;;;;2.32;62.03;101654.27;1708618;83;21005;-79
2022/02/27 07:16:59;;;;;;;47.05;26.62;;;;;;;2.36;61.84;101655.92;1694400;83;21021;-74
2022/02/27 07:19:26;;;;;;;11.75;6.25;;;;;;;2.42;61.81;101654.48;1631073;85;21106;-74
2022/02/27 07:21:52;;;;;;;8.83;4.12;;;;;;;2.46;61.60;101656.95;1732848;81;21809;-75
2022/02/27 07:24:20;;;;;;;7.12;3.58;;;;;;;2.51;61.55;101655.52;1700928;82;21562;-75
2022/02/27 07:26:47;;;;;;;7.65;3.40;;;;;;;2.55;61.41;101646.73;1705810;82;21052;-74
2022/02/27 07:29:13;;;;;;;6.55;2.85;;;;;;;2.57;60.67;101652.77;1705651;82;22300;-75
2022/02/27 07:31:40;;;;;;;8.18;4.30;;;;;;;2.62;60.72;101651.36;1712609;82;21025;-75
2022/02/27 07:34:07;;;;;;;40.95;20.60;;;;;;;2.67;60.67;101652.93;1724634;81;21513;-77
2022/02/27 07:36:33;;;;;;;33.73;16.50;;;;;;;2.73;60.55;101644.10;1713590;82;21061;-76
2022/02/27 07:39:00;;;;;;;12.43;6.75;;;;;;;2.78;60.43;101644.81;1700594;83;21012;-75
2022/02/27 07:41:27;;;;;;;35.52;16.93;;;;;;;2.84;60.33;101642.05;1669654;85;21108;-75
2022/02/27 07:43:53;;;;;;;79.30;37.03;;;;;;;2.87;60.32;101644.12;1661433;83;21034;-76
2022/02/27 07:46:20;;;;;;;60.10;29.37;;;;;;;2.92;60.12;101641.40;1649566;85;21859;-75
2022/02/27 07:48:46;;;;;;;28.45;14.30;;;;;;;2.95;59.78;101646.52;1711974;83;21335;-76
2022/02/27 07:51:13;;;;;;;9.35;4.95;;;;;;;3.00;59.91;101639.89;1711813;83;21475;-74
2022/02/27 07:53:39;;;;;;;18.60;9.95;;;;;;;3.07;59.92;101640.95;1666796;84;21099;-73
2022/02/27 07:56:06;;;;;;;15.72;8.30;;;;;;;3.15;59.48;101636.83;1654368;85;21139;-73
2022/02/27 07:58:34;;;;;;;9.00;3.80;;;;;;;3.23;59.41;101628.33;1651146;84;22208;-79
2022/02/27 08:01:01;;;;;;;6.60;3.30;;;;;;;3.31;59.19;101630.73;1641397;85;21091;-78
2022/02/27 08:03:28;;;;;;;7.55;3.30;;;;;;;3.37;58.85;101643.13;1697093;82;21045;-80
2022/02/27 08:05:55;;;;;;;7.40;3.75;;;;;;;3.43;58.56;101634.27;1704016;82;21084;-80
2022/02/27 08:08:21;;;;;;;9.53;5.22;;;;;;;3.47;58.17;101631.11;1689517;82;21563;-77
2022/02/27 08:10:49;;;;;;;23.40;10.50;;;;;;;3.52;58.01;101632.70;1701527;83;20982;-77
2022/02/27 08:13:16;;;;;;;29.32;15.05;;;;;;;3.58;57.53;101632.98;1722610;82;21016;-78
2022/02/27 08:15:42;;;;;;;11.25;5.92;;;;;;;3.66;57.29;101628.34;1731555;82;21013;-78
2022/02/27 08:18:12;;;;;;;7.20;3.27;;;;;;;3.70;56.97;101630.83;1707238;83;21017;-80
2022/02/27 08:20:38;;;;;;;5.30;2.90;;;;;;;3.77;57.17;101626.73;1659004;84;21017;-79
2022/02/27 08:23:05;;;;;;;5.03;2.47;;;;;;;3.87;57.32;101622.48;1704408;83;21919;-82
2022/02/27 08:25:31;;;;;;;4.85;2.37;;;;;;;3.98;56.61;101629.52;1693392;82;21073;-77
2022/02/27 08:27:58;;;;;;;5.78;2.90;;;;;;;4.05;56.21;101620.15;1744632;82;22065;-76
2022/02/27 08:30:25;;;;;;;6.00;2.70;;;;;;;4.11;56.02;101619.51;1744428;82;21435;-80
2022/02/27 08:32:51;;;;;;;5.47;2.92;;;;;;;4.20;55.85;101627.51;1740252;82;21024;-71
2022/02/27 08:35:18;;;;;;;7.92;3.25;;;;;;;4.27;55.71;101630.33;1708426;81;21815;-75
2022/02/27 08:37:45;;;;;;;7.78;3.20;;;;;;;4.36;55.70;101633.95;1664696;84;21494;-73
2022/02/27 08:40:12;;;;;;;13.43;9.38;;;;;;;4.44;55.07;101629.73;1685693;83;21503;-71
2022/02/27 08:42:39;;;;;;;7.25;4.53;;;;;;;4.51;54.81;101625.56;1680398;83;21024;-73
2022/02/27 08:45:08;;;;;;;34.53;14.83;;;;;;;4.59;54.61;101633.16;1671742;85;21067;-73
2022/02/27 08:47:34;;;;;;;56.63;22.37;;;;;;;4.65;53.25;101618.56;1732642;82;22498;-74
2022/02/27 08:50:01;;;;;;;33.80;13.53;;;;;;;4.70;52.87;101626.23;1709938;81;21088;-75
2022/02/27 08:52:27;;;;;;;30.90;12.80;;;;;;;4.72;52.27;101624.41;1690391;83;21025;-74
2022/02/27 08:54:54;;;;;;;35.40;17.62;;;;;;;4.75;52.02;101623.02;1678216;83;21492;-73
2022/02/27 08:57:21;;;;;;;21.20;12.85;;;;;;;4.81;51.78;101626.25;1700785;83;21499;-74
2022/02/27 08:59:48;;;;;;;8.65;5.10;;;;;;;4.86;51.60;101629.58;1707996;82;21834;-72
2022/02/27 09:02:15;;;;;;;6.70;2.52;;;;;;;4.94;51.73;101623.22;1701204;82;21072;-75
2022/02/27 09:04:44;;;;;;;4.22;2.45;;;;;;;4.99;51.06;101624.75;1699646;82;21044;-83
2022/02/27 09:07:11;;;;;;;5.10;2.30;;;;;;;5.04;51.00;101621.98;1669151;85;21416;-82
2022/02/27 09:09:38;;;;;;;5.53;1.70;;;;;;;5.08;50.51;101617.86;1670707;84;21041;-82
2022/02/27 09:12:07;;;;;;;4.08;1.70;;;;;;;5.08;49.87;101621.80;1661623;84;21807;-88
2022/02/27 09:14:35;;;;;;;3.67;1.70;;;;;;;5.04;49.72;101614.97;1650841;84;21085;-84
2022/02/27 09:17:02;;;;;;;2.95;1.35;;;;;;;5.00;49.48;101612.50;1718555;82;21421;-83
2022/02/27 09:19:29;;;;;;;3.45;1.62;;;;;;;4.96;49.63;101617.02;1737930;82;21075;-85
2022/02/27 09:21:56;;;;;;;2.70;1.22;;;;;;;4.98;49.34;101614.33;1728318;82;21488;-80
2022/02/27 09:24:23;;;;;;;2.35;1.37;;;;;;;4.97;49.36;101611.31;1711403;82;21795;-81
2022/02/27 09:26:50;;;;;;;3.65;1.50;;;;;;;5.00;49.41;101618.59;1686789;83;21043;-81
2022/02/27 09:29:17;;;;;;;3.10;1.40;;;;;;;5.03;48.81;101625.05;1694854;82;20996;-82
2022/02/27 09:31:44;;;;;;;3.67;1.50;;;;;;;5.05;48.25;101626.30;1709794;82;21017;-80
2022/02/27 09:34:11;;;;;;;2.87;1.32;;;;;;;5.10;48.78;101623.04;1711570;83;21477;-79
2022/02/27 09:36:38;;;;;;;4.22;1.45;;;;;;;5.20;48.41;101626.17;1675335;83;21772;-79
2022/02/27 09:39:06;;;;;;;4.65;1.20;;;;;;;5.22;47.99;101621.76;1684820;83;21045;-78
2022/02/27 09:41:33;;;;;;;3.47;1.72;;;;;;;5.23;47.83;101627.39;1708254;83;20965;-78
2022/02/27 09:44:01;;;;;;;4.35;1.40;;;;;;;5.25;47.58;101626.87;1694628;83;20999;-77
2022/02/27 09:46:28;;;;;;;5.87;2.20;;;;;;;5.21;47.19;101621.33;1650887;85;21013;-72
2022/02/27 09:48:55;;;;;;;4.42;1.80;;;;;;;5.18;47.71;101621.85;1670947;84;22523;-72
2022/02/27 09:51:25;;;;;;;4.25;1.72;;;;;;;5.24;47.33;101619.47;1737934;82;20945;-74
2022/02/27 09:53:52;;;;;;;4.33;1.60;;;;;;;5.20;46.69;101621.79;1712929;82;20954;-73
2022/02/27 09:56:19;;;;;;;4.37;1.77;;;;;;;5.11;46.77;101615.58;1690040;83;21048;-71
2022/02/27 09:58:46;;;;;;;2.83;1.50;;;;;;;5.12;47.09;101622.09;1644041;85;20982;-71
2022/02/27 10:01:15;;;;;;;4.60;1.70;;;;;;;5.15;46.73;101621.98;1703503;82;21751;-70
2022/02/27 10:03:42;;;;;;;4.60;2.37;;;;;;;5.17;46.96;101620.60;1703358;82;21052;-71
2022/02/27 10:06:13;;;;;;;4.80;2.15;;;;;;;5.18;46.91;101613.99;1709697;82;21084;-71
2022/02/27 10:08:43;;;;;;;11.30;6.58;;;;;;;5.25;47.18;101616.39;1685175;82;21563;-72
2022/02/27 10:11:14;;;;;;;7.70;2.75;;;;;;;5.30;46.91;101615.75;1700324;82;21424;-72
2022/02/27 10:13:44;;;;;;;9.35;4.62;;;;;;;5.31;46.48;101610.48;1701860;82;21778;-71
2022/02/27 10:16:17;;;;;;;5.00;1.60;;;;;;;5.33;46.15;101609.11;1693926;82;21021;-72
2022/02/27 10:18:54;;;;;;;7.08;2.22;;;;;;;5.30;45.89;101607.44;1713191;82;21043;-71
2022/02/27 10:21:37;;;;;;;4.40;1.60;;;;;;;5.32;46.39;101606.95;1717868;82;21010;-71
2022/02/27 10:24:08;;;;;;;3.92;2.27;;;;;;;5.43;45.79;101602.61;1698740;81;21012;-70
2022/02/27 10:26:37;;;;;;;4.58;2.37;;;;;;;5.54;46.36;101601.73;1649541;86;21827;-71
2022/02/27 10:29:20;;;;;;;4.33;2.92;;;;;;;5.71;46.51;101599.30;1659739;85;21077;-70
2022/02/27 10:31:53;;;;;;;4.20;1.47;;;;;;;5.88;46.30;101595.98;1668909;84;22333;-87
2022/02/27 10:34:26;;;;;;;2.83;1.37;;;;;;;5.98;45.16;101597.38;1665462;84;22446;-72
2022/02/27 10:37:09;;;;;;;2.70;1.40;;;;;;;6.03;45.20;101594.55;1698607;82;21002;-72
2022/02/27 10:39:46;;;;;;;2.87;1.25;;;;;;;6.00;44.27;101598.63;1706830;82;21860;-70
2022/02/27 10:42:16;;;;;;;4.08;1.42;;;;;;;5.94;45.06;101597.55;1697816;82;22110;-75
2022/02/27 10:44:59;;;;;;;2.70;1.17;;;;;;;5.89;45.35;101592.48;1693071;82;21045;-74
2022/02/27 10:47:31;;;;;;;3.77;1.70;;;;;;;5.82;45.21;101596.71;1690889;82;21490;-74
2022/02/27 10:50:13;;;;;;;3.47;1.52;;;;;;;5.71;45.86;101594.06;1722657;82;21045;-73
2022/02/27 10:52:46;;;;;;;3.80;1.52;;;;;;;5.67;46.25;101590.30;1716717;82;23096;-76
2022/02/27 10:55:13;;;;;;;4.05;1.40;;;;;;;5.63;46.63;101588.72;1736546;82;21009;-74
2022/02/27 10:57:46;;;;;;;3.50;1.40;;;;;;;5.57;46.50;101588.95;1736855;82;20900;-74
2022/02/27 11:00:27;;;;;;;4.63;1.37;;;;;;;5.44;46.79;101588.59;1736874;82;21511;-75
2022/02/27 11:03:02;;;;;;;2.90;1.42;;;;;;;5.41;47.18;101590.88;1732163;82;21488;-77
2022/02/27 11:05:34;;;;;;;4.15;1.42;;;;;;;5.44;47.29;101586.81;1736088;82;21835;-75
2022/02/27 11:08:04;;;;;;;2.90;1.30;;;;;;;5.45;47.40;101587.21;1712327;82;21515;-77
2022/02/27 11:10:39;;;;;;;3.70;1.25;;;;;;;5.49;46.78;101583.16;1688493;83;20996;-83
2022/02/27 11:13:11;;;;;;;3.08;1.30;;;;;;;5.55;46.97;101585.09;1715427;82;21041;-83
2022/02/27 11:15:39;;;;;;;3.37;1.40;;;;;;;5.63;46.32;101588.72;1673911;85;21055;-79
2022/02/27 11:18:06;;;;;;;3.67;1.20;;;;;;;5.63;45.74;101584.79;1673230;84;22209;-76
2022/02/27 11:20:33;;;;;;;3.08;1.35;;;;;;;5.57;45.92;101588.95;1672395;84;21019;-80
2022/02/27 11:23:00;;;;;;;5.95;1.32;;;;;;;5.55;45.83;101585.09;1668329;83;20977;-79
2022/02/27 11:25:28;;;;;;;2.95;1.10;;;;;;;5.56;46.30;101588.56;1700525;82;21009;-80
2022/02/27 11:28:05;;;;;;;2.67;1.17;;;;;;;5.58;45.64;101585.41;1694073;83;21096;-80